createdAt,value
2022-08-28T00:00:01.722Z,1.40
2022-08-28T00:00:11.406Z,1.30
2022-08-28T00:00:21.681Z,1.40
2022-08-28T00:00:31.621Z,1.40
2022-08-28T00:00:41.537Z,1.70
2022-08-28T00:00:51.643Z,1.60
2022-08-28T00:01:01.767Z,1.60
2022-08-28T00:01:11.490Z,1.60
2022-08-28T00:01:21.614Z,1.70
2022-08-28T00:01:31.431Z,1.70
2022-08-28T00:01:41.550Z,1.50
2022-08-28T00:01:51.408Z,1.40
2022-08-28T00:02:01.574Z,1.40
2022-08-28T00:02:11.655Z,1.40
2022-08-28T00:02:21.486Z,1.40
2022-08-28T00:02:31.710Z,1.40
2022-08-28T00:02:41.729Z,1.40
2022-08-28T00:02:51.663Z,1.60
2022-08-28T00:03:01.714Z,1.50
2022-08-28T00:03:11.621Z,1.50
2022-08-28T00:03:21.408Z,1.40
2022-08-28T00:03:31.452Z,1.50
2022-08-28T00:03:41.544Z,1.50
2022-08-28T00:03:51.414Z,1.40
2022-08-28T00:04:01.449Z,1.40
2022-08-28T00:04:11.543Z,1.50
2022-08-28T00:04:21.654Z,1.50
2022-08-28T00:04:31.752Z,1.60
2022-08-28T00:04:41.595Z,1.40
2022-08-28T00:04:51.598Z,1.40
2022-08-28T00:05:01.666Z,1.30
2022-08-28T00:05:11.535Z,1.40
2022-08-28T00:05:21.592Z,1.40
2022-08-28T00:05:31.412Z,1.30
2022-08-28T00:05:41.615Z,1.20
2022-08-28T00:05:51.441Z,1.20
2022-08-28T00:06:01.641Z,1.40
2022-08-28T00:06:11.431Z,1.50
2022-08-28T00:06:21.481Z,1.50
2022-08-28T00:06:31.732Z,1.40
2022-08-28T00:06:41.504Z,1.50
2022-08-28T00:06:51.589Z,1.60
2022-08-28T00:07:01.673Z,1.50
2022-08-28T00:07:11.655Z,1.50
2022-08-28T00:07:21.418Z,1.40
2022-08-28T00:07:31.649Z,1.60
2022-08-28T00:07:47.017Z,1.50
2022-08-28T00:07:51.432Z,1.70
2022-08-28T00:08:01.516Z,1.60
2022-08-28T00:08:11.888Z,1.60
2022-08-28T00:08:21.602Z,1.60
2022-08-28T00:08:31.520Z,1.60
2022-08-28T00:08:41.600Z,1.50
2022-08-28T00:08:51.569Z,1.30
2022-08-28T00:09:01.573Z,1.10
2022-08-28T00:09:11.698Z,1.30
2022-08-28T00:09:21.408Z,1.40
2022-08-28T00:09:31.454Z,1.60
2022-08-28T00:09:41.453Z,1.50
2022-08-28T00:09:51.675Z,1.40
2022-08-28T00:10:01.543Z,1.30
2022-08-28T00:10:11.730Z,1.30
2022-08-28T00:10:22.632Z,1.40
2022-08-28T00:10:31.458Z,1.40
2022-08-28T00:10:41.583Z,1.40
2022-08-28T00:10:51.566Z,1.30
2022-08-28T00:11:01.704Z,1.30
2022-08-28T00:11:11.557Z,1.40
2022-08-28T00:11:21.549Z,1.30
2022-08-28T00:11:31.456Z,1.20
2022-08-28T00:11:41.506Z,1.20
2022-08-28T00:11:51.644Z,1.20
2022-08-28T00:12:01.601Z,1.20
2022-08-28T00:12:11.527Z,1.20
2022-08-28T00:12:21.475Z,1.10
2022-08-28T00:12:31.439Z,1.10
2022-08-28T00:12:41.562Z,1.10
2022-08-28T00:12:51.443Z,1.20
2022-08-28T00:13:01.719Z,1.30
2022-08-28T00:13:11.406Z,1.30
2022-08-28T00:13:21.685Z,1.20
2022-08-28T00:13:31.704Z,1.20
2022-08-28T00:13:41.545Z,1.20
2022-08-28T00:13:51.692Z,1.20
2022-08-28T00:14:01.701Z,1.10
2022-08-28T00:14:11.444Z,1.10
2022-08-28T00:14:21.716Z,1.30
2022-08-28T00:14:31.614Z,1.30
2022-08-28T00:14:41.599Z,1.30
2022-08-28T00:14:51.686Z,1.30
2022-08-28T00:15:01.428Z,1.20
2022-08-28T00:15:12.882Z,1.30
2022-08-28T00:15:21.575Z,1.20
2022-08-28T00:15:31.658Z,1.30
2022-08-28T00:15:41.609Z,1.40
2022-08-28T00:15:51.576Z,1.40
2022-08-28T00:16:01.556Z,1.20
2022-08-28T00:16:11.502Z,1.20
2022-08-28T00:16:21.506Z,1.30
2022-08-28T00:16:31.548Z,1.40
2022-08-28T00:16:41.546Z,1.40
2022-08-28T00:16:51.627Z,1.30
2022-08-28T00:17:01.672Z,1.30
2022-08-28T00:17:11.489Z,1.30
2022-08-28T00:17:21.558Z,1.20
2022-08-28T00:17:31.582Z,1.20
2022-08-28T00:17:41.525Z,1.30
2022-08-28T00:17:51.729Z,1.30
2022-08-28T00:18:01.679Z,1.20
2022-08-28T00:18:11.842Z,1.10
2022-08-28T00:18:21.714Z,1.10
2022-08-28T00:18:31.516Z,1.10
2022-08-28T00:18:41.574Z,1.20
2022-08-28T00:18:51.414Z,1.10
2022-08-28T00:19:01.419Z,1.30
2022-08-28T00:19:11.641Z,1.20
2022-08-28T00:19:21.478Z,1.40
2022-08-28T00:19:34.462Z,1.20
2022-08-28T00:19:41.418Z,1.30
2022-08-28T00:19:51.650Z,1.30
2022-08-28T00:20:01.652Z,1.40
2022-08-28T00:20:11.486Z,1.40
2022-08-28T00:20:21.435Z,1.40
2022-08-28T00:20:31.689Z,1.30
2022-08-28T00:20:41.654Z,1.20
2022-08-28T00:20:51.650Z,1.30
2022-08-28T00:21:01.702Z,1.30
2022-08-28T00:21:11.654Z,1.30
2022-08-28T00:21:21.487Z,1.20
2022-08-28T00:21:31.414Z,1.20
2022-08-28T00:21:41.552Z,1.30
2022-08-28T00:21:51.541Z,1.20
2022-08-28T00:22:01.709Z,1.20
2022-08-28T00:22:11.475Z,1.20
2022-08-28T00:22:23.183Z,1.20
2022-08-28T00:22:31.660Z,1.30
2022-08-28T00:22:41.704Z,1.20
2022-08-28T00:22:51.541Z,1.10
2022-08-28T00:23:01.581Z,1.10
2022-08-28T00:23:11.679Z,1.20
2022-08-28T00:23:21.519Z,1.20
2022-08-28T00:23:38.789Z,1.20
2022-08-28T00:23:42.876Z,1.20
2022-08-28T00:23:51.436Z,1.20
2022-08-28T00:24:01.714Z,1.20
2022-08-28T00:24:11.484Z,1.20
2022-08-28T00:24:21.702Z,1.20
2022-08-28T00:24:31.594Z,1.10
2022-08-28T00:24:41.561Z,1.10
2022-08-28T00:24:51.665Z,1.10
2022-08-28T00:25:01.553Z,1.00
2022-08-28T00:25:11.590Z,1.00
2022-08-28T00:25:21.698Z,1.10
2022-08-28T00:25:31.668Z,1.20
2022-08-28T00:25:41.582Z,1.20
2022-08-28T00:25:51.454Z,1.30
2022-08-28T00:26:01.596Z,1.50
2022-08-28T00:26:11.417Z,1.50
2022-08-28T00:26:21.474Z,1.30
2022-08-28T00:26:31.533Z,1.20
2022-08-28T00:26:41.663Z,1.10
2022-08-28T00:26:51.566Z,1.30
2022-08-28T00:27:01.518Z,1.30
2022-08-28T00:27:11.612Z,1.30
2022-08-28T00:27:21.621Z,1.20
2022-08-28T00:27:31.578Z,1.20
2022-08-28T00:27:41.642Z,1.20
2022-08-28T00:27:51.583Z,1.20
2022-08-28T00:28:05.461Z,1.20
2022-08-28T00:28:13.433Z,1.20
2022-08-28T00:28:24.248Z,1.20
2022-08-28T00:28:31.472Z,1.10
2022-08-28T00:28:41.447Z,1.30
2022-08-28T00:28:51.543Z,1.40
2022-08-28T00:29:01.510Z,1.40
2022-08-28T00:29:11.634Z,1.30
2022-08-28T00:29:21.764Z,1.20
2022-08-28T00:29:31.511Z,1.20
2022-08-28T00:29:41.493Z,1.20
2022-08-28T00:29:51.442Z,1.20
2022-08-28T00:30:01.617Z,1.30
2022-08-28T00:30:11.678Z,1.30
2022-08-28T00:30:21.577Z,1.40
2022-08-28T00:30:31.504Z,1.30
2022-08-28T00:30:41.530Z,1.20
2022-08-28T00:30:51.688Z,1.10
2022-08-28T00:31:01.696Z,1.30
2022-08-28T00:31:11.581Z,1.30
2022-08-28T00:31:21.760Z,1.30
2022-08-28T00:31:31.653Z,1.20
2022-08-28T00:31:41.628Z,1.10
2022-08-28T00:31:51.592Z,1.10
2022-08-28T00:32:01.681Z,1.20
2022-08-28T00:32:11.648Z,1.20
2022-08-28T00:32:21.609Z,1.30
2022-08-28T00:32:31.623Z,1.30
2022-08-28T00:32:41.516Z,1.30
2022-08-28T00:32:51.525Z,1.30
2022-08-28T00:33:01.634Z,1.30
2022-08-28T00:33:11.659Z,1.30
2022-08-28T00:33:21.488Z,1.20
2022-08-28T00:33:31.455Z,1.10
2022-08-28T00:33:41.654Z,1.10
2022-08-28T00:33:51.504Z,1.10
2022-08-28T00:34:01.659Z,1.20
2022-08-28T00:34:11.573Z,1.20
2022-08-28T00:34:21.616Z,1.30
2022-08-28T00:34:33.452Z,1.30
2022-08-28T00:34:41.458Z,1.30
2022-08-28T00:34:51.447Z,1.30
2022-08-28T00:35:01.645Z,1.30
2022-08-28T00:35:11.677Z,1.20
2022-08-28T00:35:21.444Z,1.20
2022-08-28T00:35:31.716Z,1.20
2022-08-28T00:35:41.678Z,1.40
2022-08-28T00:35:51.637Z,1.50
2022-08-28T00:36:01.675Z,1.50
2022-08-28T00:36:11.412Z,1.40
2022-08-28T00:36:21.534Z,1.40
2022-08-28T00:36:31.665Z,1.30
2022-08-28T00:36:41.652Z,1.20
2022-08-28T00:36:51.633Z,1.20
2022-08-28T00:37:01.414Z,1.20
2022-08-28T00:37:11.408Z,1.20
2022-08-28T00:37:24.123Z,1.20
2022-08-28T00:37:31.409Z,1.20
2022-08-28T00:37:41.703Z,1.30
2022-08-28T00:37:51.509Z,1.20
2022-08-28T00:38:01.620Z,1.40
2022-08-28T00:38:11.816Z,1.40
2022-08-28T00:38:21.468Z,1.50
2022-08-28T00:38:31.535Z,1.40
2022-08-28T00:38:41.647Z,1.30
2022-08-28T00:38:51.521Z,1.20
2022-08-28T00:39:01.441Z,1.20
2022-08-28T00:39:11.514Z,1.20
2022-08-28T00:39:21.424Z,1.30
2022-08-28T00:39:31.695Z,1.40
2022-08-28T00:39:41.614Z,1.40
2022-08-28T00:39:51.624Z,1.50
2022-08-28T00:40:01.553Z,1.40
2022-08-28T00:40:11.744Z,1.30
2022-08-28T00:40:28.859Z,1.30
2022-08-28T00:40:32.919Z,1.40
2022-08-28T00:40:41.723Z,1.20
2022-08-28T00:40:51.740Z,1.50
2022-08-28T00:41:01.689Z,1.40
2022-08-28T00:41:11.763Z,1.60
2022-08-28T00:41:27.429Z,1.20
2022-08-28T00:41:31.528Z,1.20
2022-08-28T00:41:41.609Z,1.30
2022-08-28T00:41:51.474Z,1.30
2022-08-28T00:42:01.471Z,1.50
2022-08-28T00:42:11.671Z,1.30
2022-08-28T00:42:21.617Z,1.40
2022-08-28T00:42:31.575Z,1.30
2022-08-28T00:42:41.444Z,1.30
2022-08-28T00:42:51.593Z,1.30
2022-08-28T00:43:01.626Z,1.40
2022-08-28T00:43:11.482Z,1.30
2022-08-28T00:43:21.720Z,1.20
2022-08-28T00:43:31.487Z,1.20
2022-08-28T00:43:41.558Z,1.20
2022-08-28T00:43:51.458Z,1.20
2022-08-28T00:44:01.465Z,1.20
2022-08-28T00:44:11.628Z,1.20
2022-08-28T00:44:21.406Z,1.20
2022-08-28T00:44:31.585Z,1.20
2022-08-28T00:44:41.699Z,1.20
2022-08-28T00:44:51.459Z,1.20
2022-08-28T00:45:01.627Z,1.20
2022-08-28T00:45:11.470Z,1.30
2022-08-28T00:45:21.472Z,1.30
2022-08-28T00:45:34.853Z,1.30
2022-08-28T00:45:41.463Z,1.10
2022-08-28T00:45:51.651Z,1.30
2022-08-28T00:46:01.609Z,1.30
2022-08-28T00:46:11.714Z,1.30
2022-08-28T00:46:21.522Z,1.30
2022-08-28T00:46:31.662Z,1.10
2022-08-28T00:46:41.486Z,1.10
2022-08-28T00:46:51.695Z,1.10
2022-08-28T00:47:01.663Z,1.20
2022-08-28T00:47:11.619Z,1.30
2022-08-28T00:47:21.548Z,1.40
2022-08-28T00:47:31.648Z,1.30
2022-08-28T00:47:41.522Z,1.30
2022-08-28T00:47:51.744Z,1.10
2022-08-28T00:48:01.439Z,1.20
2022-08-28T00:48:11.789Z,1.10
2022-08-28T00:48:21.408Z,1.20
2022-08-28T00:48:31.516Z,1.30
2022-08-28T00:48:41.599Z,1.40
2022-08-28T00:48:51.665Z,1.50
2022-08-28T00:49:01.412Z,1.50
2022-08-28T00:49:11.635Z,1.30
2022-08-28T00:49:21.728Z,1.20
2022-08-28T00:49:31.446Z,1.20
2022-08-28T00:49:41.602Z,1.20
2022-08-28T00:49:51.538Z,1.30
2022-08-28T00:50:01.422Z,1.30
2022-08-28T00:50:11.578Z,1.40
2022-08-28T00:50:21.573Z,1.20
2022-08-28T00:50:31.568Z,1.30
2022-08-28T00:50:41.416Z,1.30
2022-08-28T00:50:51.407Z,1.40
2022-08-28T00:51:01.424Z,1.60
2022-08-28T00:51:11.410Z,1.50
2022-08-28T00:51:21.682Z,1.40
2022-08-28T00:51:31.620Z,1.30
2022-08-28T00:51:41.705Z,1.40
2022-08-28T00:51:51.550Z,1.50
2022-08-28T00:52:01.722Z,1.50
2022-08-28T00:52:12.250Z,1.30
2022-08-28T00:52:21.552Z,1.40
2022-08-28T00:52:31.649Z,1.30
2022-08-28T00:52:41.482Z,1.40
2022-08-28T00:52:51.467Z,1.30
2022-08-28T00:53:01.654Z,1.30
2022-08-28T00:53:11.698Z,1.40
2022-08-28T00:53:23.450Z,1.50
2022-08-28T00:53:32.841Z,1.50
2022-08-28T00:53:41.482Z,1.40
2022-08-28T00:53:51.655Z,1.40
2022-08-28T00:54:06.896Z,1.50
2022-08-28T00:54:11.654Z,1.40
2022-08-28T00:54:21.674Z,1.30
2022-08-28T00:54:31.433Z,1.40
2022-08-28T00:54:41.711Z,1.50
2022-08-28T00:54:58.773Z,1.60
2022-08-28T00:55:01.452Z,1.30
2022-08-28T00:55:11.486Z,1.30
2022-08-28T00:55:21.637Z,1.30
2022-08-28T00:55:31.401Z,1.40
2022-08-28T00:55:41.684Z,1.50
2022-08-28T00:55:51.662Z,1.40
2022-08-28T00:56:01.482Z,1.40
2022-08-28T00:56:12.925Z,1.30
2022-08-28T00:56:21.693Z,1.40
2022-08-28T00:56:31.576Z,1.40
2022-08-28T00:56:41.495Z,1.50
2022-08-28T00:56:51.418Z,1.40
2022-08-28T00:57:01.455Z,1.30
2022-08-28T00:57:11.715Z,1.50
2022-08-28T00:57:21.727Z,1.50
2022-08-28T00:57:31.631Z,1.50
2022-08-28T00:57:41.628Z,1.30
2022-08-28T00:57:51.520Z,1.30
2022-08-28T00:58:01.624Z,1.30
2022-08-28T00:58:11.831Z,1.40
2022-08-28T00:58:21.571Z,1.50
2022-08-28T00:58:31.596Z,1.40
2022-08-28T00:58:41.594Z,1.40
2022-08-28T00:58:51.400Z,1.40
2022-08-28T00:59:01.493Z,1.40
2022-08-28T00:59:11.650Z,1.50
2022-08-28T00:59:21.593Z,1.40
2022-08-28T00:59:31.461Z,1.40
2022-08-28T00:59:41.656Z,1.30
2022-08-28T00:59:51.695Z,1.30
2022-08-28T01:00:01.400Z,1.30
2022-08-28T01:00:11.658Z,1.30
2022-08-28T01:00:21.505Z,1.20
2022-08-28T01:00:31.474Z,1.20
2022-08-28T01:00:41.700Z,1.20
2022-08-28T01:00:51.408Z,1.30
2022-08-28T01:01:01.730Z,1.40
2022-08-28T01:01:11.731Z,1.60
2022-08-28T01:01:21.539Z,1.70
2022-08-28T01:01:31.683Z,1.60
2022-08-28T01:01:41.685Z,1.70
2022-08-28T01:01:51.692Z,1.40
2022-08-28T01:02:01.810Z,1.50
2022-08-28T01:02:11.659Z,1.20
2022-08-28T01:02:21.654Z,1.30
2022-08-28T01:02:31.661Z,1.20
2022-08-28T01:02:41.572Z,1.30
2022-08-28T01:02:51.569Z,1.20
2022-08-28T01:03:01.734Z,1.20
2022-08-28T01:03:11.797Z,1.30
2022-08-28T01:03:21.408Z,1.40
2022-08-28T01:03:31.640Z,1.50
2022-08-28T01:03:41.656Z,1.40
2022-08-28T01:03:51.516Z,1.30
2022-08-28T01:04:01.421Z,1.10
2022-08-28T01:04:11.576Z,1.20
2022-08-28T01:04:21.701Z,1.40
2022-08-28T01:04:31.692Z,1.40
2022-08-28T01:04:41.582Z,1.20
2022-08-28T01:04:51.407Z,1.20
2022-08-28T01:05:01.651Z,1.20
2022-08-28T01:05:11.438Z,1.30
2022-08-28T01:05:21.703Z,1.30
2022-08-28T01:05:31.637Z,1.20
2022-08-28T01:05:41.684Z,1.30
2022-08-28T01:05:51.532Z,1.40
2022-08-28T01:06:01.584Z,1.40
2022-08-28T01:06:11.610Z,1.30
2022-08-28T01:06:21.539Z,1.40
2022-08-28T01:06:31.416Z,1.50
2022-08-28T01:06:41.607Z,1.40
2022-08-28T01:06:51.500Z,1.40
2022-08-28T01:07:01.418Z,1.50
2022-08-28T01:07:11.653Z,1.50
2022-08-28T01:07:21.447Z,1.50
2022-08-28T01:07:31.514Z,1.30
2022-08-28T01:07:41.597Z,1.50
2022-08-28T01:07:51.697Z,1.40
2022-08-28T01:08:01.628Z,1.60
2022-08-28T01:08:11.889Z,1.60
2022-08-28T01:08:21.437Z,1.50
2022-08-28T01:08:31.603Z,1.60
2022-08-28T01:08:41.474Z,1.50
2022-08-28T01:08:51.684Z,1.60
2022-08-28T01:09:01.433Z,1.40
2022-08-28T01:09:11.565Z,1.40
2022-08-28T01:09:21.517Z,1.30
2022-08-28T01:09:31.686Z,1.50
2022-08-28T01:09:41.725Z,1.50
2022-08-28T01:09:51.543Z,1.50
2022-08-28T01:10:01.560Z,1.40
2022-08-28T01:10:11.488Z,1.50
2022-08-28T01:10:21.555Z,1.40
2022-08-28T01:10:31.568Z,1.30
2022-08-28T01:10:41.702Z,1.10
2022-08-28T01:10:51.585Z,1.20
2022-08-28T01:11:01.669Z,1.10
2022-08-28T01:11:11.424Z,1.20
2022-08-28T01:11:21.457Z,1.30
2022-08-28T01:11:31.550Z,1.40
2022-08-28T01:11:41.664Z,1.50
2022-08-28T01:11:51.470Z,1.60
2022-08-28T01:12:01.464Z,1.50
2022-08-28T01:12:11.683Z,1.60
2022-08-28T01:12:21.465Z,1.50
2022-08-28T01:12:31.583Z,1.40
2022-08-28T01:12:41.514Z,1.40
2022-08-28T01:12:51.547Z,1.50
2022-08-28T01:13:01.604Z,1.60
2022-08-28T01:13:11.674Z,1.60
2022-08-28T01:13:21.725Z,1.50
2022-08-28T01:13:31.492Z,1.70
2022-08-28T01:13:41.479Z,1.80
2022-08-28T01:13:51.539Z,1.80
2022-08-28T01:14:01.949Z,1.60
2022-08-28T01:14:11.563Z,1.60
2022-08-28T01:14:21.436Z,1.50
2022-08-28T01:14:31.715Z,1.50
2022-08-28T01:14:41.436Z,1.50
2022-08-28T01:14:51.688Z,1.50
2022-08-28T01:15:01.586Z,1.50
2022-08-28T01:15:11.412Z,1.50
2022-08-28T01:15:21.678Z,1.60
2022-08-28T01:15:31.638Z,1.50
2022-08-28T01:15:41.555Z,1.60
2022-08-28T01:15:51.762Z,1.50
2022-08-28T01:16:01.558Z,1.40
2022-08-28T01:16:11.600Z,1.40
2022-08-28T01:16:21.685Z,1.50
2022-08-28T01:16:32.355Z,1.70
2022-08-28T01:16:41.639Z,1.70
2022-08-28T01:16:51.531Z,1.50
2022-08-28T01:17:01.448Z,1.40
2022-08-28T01:17:11.418Z,1.40
2022-08-28T01:17:21.594Z,1.50
2022-08-28T01:17:31.490Z,1.40
2022-08-28T01:17:43.152Z,1.50
2022-08-28T01:17:51.668Z,1.50
2022-08-28T01:18:05.898Z,1.40
2022-08-28T01:18:11.781Z,1.40
2022-08-28T01:18:21.679Z,1.50
2022-08-28T01:18:31.567Z,1.50
2022-08-28T01:18:41.474Z,1.60
2022-08-28T01:18:51.584Z,1.50
2022-08-28T01:19:01.562Z,1.60
2022-08-28T01:19:11.416Z,1.50
2022-08-28T01:19:21.493Z,1.60
2022-08-28T01:19:31.563Z,1.60
2022-08-28T01:19:41.423Z,1.60
2022-08-28T01:19:51.694Z,1.60
2022-08-28T01:20:01.595Z,1.50
2022-08-28T01:20:11.678Z,1.50
2022-08-28T01:20:21.714Z,1.40
2022-08-28T01:20:31.610Z,1.40
2022-08-28T01:20:41.592Z,1.60
2022-08-28T01:20:51.629Z,1.70
2022-08-28T01:21:01.548Z,1.70
2022-08-28T01:21:11.527Z,1.60
2022-08-28T01:21:21.418Z,1.50
2022-08-28T01:21:31.525Z,1.40
2022-08-28T01:21:41.579Z,1.40
2022-08-28T01:21:51.627Z,1.40
2022-08-28T01:22:01.440Z,1.50
2022-08-28T01:22:11.691Z,1.70
2022-08-28T01:22:21.694Z,1.60
2022-08-28T01:22:31.621Z,1.60
2022-08-28T01:22:41.673Z,1.40
2022-08-28T01:22:51.562Z,1.40
2022-08-28T01:23:01.607Z,1.50
2022-08-28T01:23:11.414Z,1.60
2022-08-28T01:23:21.581Z,1.70
2022-08-28T01:23:31.500Z,1.50
2022-08-28T01:23:41.405Z,1.50
2022-08-28T01:23:51.525Z,1.50
2022-08-28T01:24:01.451Z,1.50
2022-08-28T01:24:11.708Z,1.40
2022-08-28T01:24:21.502Z,1.30
2022-08-28T01:24:31.585Z,1.30
2022-08-28T01:24:41.602Z,1.40
2022-08-28T01:24:51.410Z,1.50
2022-08-28T01:25:01.641Z,1.50
2022-08-28T01:25:11.686Z,1.30
2022-08-28T01:25:21.671Z,1.40
2022-08-28T01:25:31.523Z,1.40
2022-08-28T01:25:41.682Z,1.40
2022-08-28T01:25:51.598Z,1.40
2022-08-28T01:26:01.659Z,1.40
2022-08-28T01:26:12.032Z,1.50
2022-08-28T01:26:21.679Z,1.40
2022-08-28T01:26:31.549Z,1.50
2022-08-28T01:26:41.446Z,1.40
2022-08-28T01:26:51.559Z,1.40
2022-08-28T01:27:01.407Z,1.30
2022-08-28T01:27:11.602Z,1.40
2022-08-28T01:27:21.452Z,1.30
2022-08-28T01:27:31.572Z,1.40
2022-08-28T01:27:41.412Z,1.50
2022-08-28T01:27:51.617Z,1.50
2022-08-28T01:28:01.702Z,1.40
2022-08-28T01:28:12.008Z,1.40
2022-08-28T01:28:21.486Z,1.40
2022-08-28T01:28:31.432Z,1.50
2022-08-28T01:28:41.707Z,1.50
2022-08-28T01:28:51.661Z,1.50
2022-08-28T01:29:01.433Z,1.50
2022-08-28T01:29:11.408Z,1.40
2022-08-28T01:29:21.635Z,1.40
2022-08-28T01:29:31.615Z,1.40
2022-08-28T01:29:41.464Z,1.50
2022-08-28T01:29:51.481Z,1.40
2022-08-28T01:30:01.417Z,1.40
2022-08-28T01:30:11.544Z,1.20
2022-08-28T01:30:21.412Z,1.40
2022-08-28T01:30:31.619Z,1.30
2022-08-28T01:30:41.718Z,1.30
2022-08-28T01:30:51.585Z,1.30
2022-08-28T01:31:01.488Z,1.40
2022-08-28T01:31:11.701Z,1.50
2022-08-28T01:31:21.740Z,1.50
2022-08-28T01:31:31.786Z,1.40
2022-08-28T01:31:41.556Z,1.40
2022-08-28T01:31:51.481Z,1.30
2022-08-28T01:32:01.666Z,1.30
2022-08-28T01:32:11.530Z,1.40
2022-08-28T01:32:21.456Z,1.50
2022-08-28T01:32:31.561Z,1.70
2022-08-28T01:32:41.538Z,1.50
2022-08-28T01:32:51.678Z,1.60
2022-08-28T01:33:01.642Z,1.40
2022-08-28T01:33:11.991Z,1.50
2022-08-28T01:33:24.309Z,1.30
2022-08-28T01:33:31.618Z,1.40
2022-08-28T01:33:42.609Z,1.50
2022-08-28T01:33:51.558Z,1.50
2022-08-28T01:34:01.668Z,1.60
2022-08-28T01:34:11.554Z,1.30
2022-08-28T01:34:21.516Z,1.30
2022-08-28T01:34:31.414Z,1.20
2022-08-28T01:34:41.539Z,1.20
2022-08-28T01:34:51.555Z,1.40
2022-08-28T01:35:01.687Z,1.50
2022-08-28T01:35:11.573Z,1.60
2022-08-28T01:35:21.710Z,1.50
2022-08-28T01:35:31.680Z,1.40
2022-08-28T01:35:41.651Z,1.40
2022-08-28T01:35:51.482Z,1.50
2022-08-28T01:36:01.603Z,1.60
2022-08-28T01:36:11.660Z,1.60
2022-08-28T01:36:21.626Z,1.60
2022-08-28T01:36:31.587Z,1.70
2022-08-28T01:36:41.439Z,1.70
2022-08-28T01:36:51.671Z,1.80
2022-08-28T01:37:03.638Z,1.70
2022-08-28T01:37:11.592Z,1.70
2022-08-28T01:37:21.495Z,1.60
2022-08-28T01:37:31.403Z,1.60
2022-08-28T01:37:41.681Z,1.50
2022-08-28T01:37:51.406Z,1.40
2022-08-28T01:38:01.461Z,1.40
2022-08-28T01:38:11.722Z,1.60
2022-08-28T01:38:26.851Z,1.60
2022-08-28T01:38:31.472Z,1.60
2022-08-28T01:38:41.606Z,1.60
2022-08-28T01:38:51.470Z,1.50
2022-08-28T01:39:01.498Z,1.60
2022-08-28T01:39:11.549Z,1.50
2022-08-28T01:39:21.543Z,1.40
2022-08-28T01:39:31.587Z,1.50
2022-08-28T01:39:41.472Z,1.50
2022-08-28T01:39:51.601Z,1.70
2022-08-28T01:40:01.581Z,1.50
2022-08-28T01:40:11.840Z,1.50
2022-08-28T01:40:21.784Z,1.40
2022-08-28T01:40:31.576Z,1.40
2022-08-28T01:40:41.800Z,1.30
2022-08-28T01:40:51.714Z,1.50
2022-08-28T01:41:01.672Z,1.60
2022-08-28T01:41:11.621Z,1.70
2022-08-28T01:41:21.522Z,1.40
2022-08-28T01:41:31.473Z,1.30
2022-08-28T01:41:41.648Z,1.50
2022-08-28T01:41:51.454Z,1.70
2022-08-28T01:42:01.634Z,1.70
2022-08-28T01:42:11.695Z,1.70
2022-08-28T01:42:21.509Z,1.70
2022-08-28T01:42:31.673Z,1.60
2022-08-28T01:42:41.550Z,1.60
2022-08-28T01:42:51.589Z,1.50
2022-08-28T01:43:01.562Z,1.50
2022-08-28T01:43:11.401Z,1.60
2022-08-28T01:43:21.706Z,1.60
2022-08-28T01:43:31.602Z,1.60
2022-08-28T01:43:41.635Z,1.50
2022-08-28T01:43:51.636Z,1.50
2022-08-28T01:44:01.684Z,1.50
2022-08-28T01:44:11.437Z,1.60
2022-08-28T01:44:21.691Z,1.60
2022-08-28T01:44:31.413Z,1.50
2022-08-28T01:44:41.638Z,1.50
2022-08-28T01:44:51.616Z,1.40
2022-08-28T01:45:01.706Z,1.40
2022-08-28T01:45:11.662Z,1.30
2022-08-28T01:45:21.665Z,1.50
2022-08-28T01:45:31.667Z,1.60
2022-08-28T01:45:41.667Z,1.60
2022-08-28T01:45:51.618Z,1.50
2022-08-28T01:46:01.727Z,1.40
2022-08-28T01:46:11.514Z,1.50
2022-08-28T01:46:21.591Z,1.50
2022-08-28T01:46:31.817Z,1.40
2022-08-28T01:46:41.466Z,1.40
2022-08-28T01:46:51.627Z,1.40
2022-08-28T01:47:01.429Z,1.40
2022-08-28T01:47:11.571Z,1.40
2022-08-28T01:47:21.658Z,1.40
2022-08-28T01:47:31.575Z,1.40
2022-08-28T01:47:41.517Z,1.40
2022-08-28T01:47:51.734Z,1.30
2022-08-28T01:48:01.568Z,1.40
2022-08-28T01:48:11.650Z,1.50
2022-08-28T01:48:21.516Z,1.50
2022-08-28T01:48:31.697Z,1.50
2022-08-28T01:48:41.668Z,1.50
2022-08-28T01:48:51.719Z,1.50
2022-08-28T01:49:01.690Z,1.50
2022-08-28T01:49:11.522Z,1.60
2022-08-28T01:49:21.730Z,1.70
2022-08-28T01:49:31.572Z,1.60
2022-08-28T01:49:41.588Z,1.50
2022-08-28T01:49:51.507Z,1.30
2022-08-28T01:50:01.537Z,1.40
2022-08-28T01:50:11.683Z,1.40
2022-08-28T01:50:21.614Z,1.50
2022-08-28T01:50:31.591Z,1.50
2022-08-28T01:50:41.636Z,1.50
2022-08-28T01:50:51.532Z,1.40
2022-08-28T01:51:01.679Z,1.40
2022-08-28T01:51:11.607Z,1.30
2022-08-28T01:51:24.640Z,1.30
2022-08-28T01:51:35.194Z,1.50
2022-08-28T01:51:41.416Z,1.60
2022-08-28T01:51:52.323Z,1.70
2022-08-28T01:52:01.673Z,1.70
2022-08-28T01:52:11.738Z,1.70
2022-08-28T01:52:25.456Z,1.70
2022-08-28T01:52:31.406Z,1.50
2022-08-28T01:52:41.637Z,1.60
2022-08-28T01:52:51.408Z,1.60
2022-08-28T01:53:01.642Z,1.70
2022-08-28T01:53:12.456Z,1.60
2022-08-28T01:53:24.907Z,1.60
2022-08-28T01:53:32.660Z,1.60
2022-08-28T01:53:41.746Z,1.60
2022-08-28T01:53:51.665Z,1.60
2022-08-28T01:54:01.635Z,1.40
2022-08-28T01:54:11.981Z,1.40
2022-08-28T01:54:21.514Z,1.50
2022-08-28T01:54:31.709Z,1.50
2022-08-28T01:54:41.444Z,1.50
2022-08-28T01:54:51.708Z,1.40
2022-08-28T01:55:01.594Z,1.50
2022-08-28T01:55:11.573Z,1.60
2022-08-28T01:55:21.806Z,1.60
2022-08-28T01:55:31.593Z,1.60
2022-08-28T01:55:41.621Z,1.50
2022-08-28T01:55:51.476Z,1.50
2022-08-28T01:56:01.441Z,1.40
2022-08-28T01:56:11.653Z,1.50
2022-08-28T01:56:21.410Z,1.50
2022-08-28T01:56:31.527Z,1.50
2022-08-28T01:56:41.457Z,1.50
2022-08-28T01:56:51.661Z,1.50
2022-08-28T01:57:01.670Z,1.60
2022-08-28T01:57:11.441Z,1.50
2022-08-28T01:57:22.533Z,1.50
2022-08-28T01:57:31.439Z,1.30
2022-08-28T01:57:41.635Z,1.20
2022-08-28T01:57:51.634Z,1.40
2022-08-28T01:58:01.692Z,1.70
2022-08-28T01:58:11.909Z,1.70
2022-08-28T01:58:21.634Z,1.40
2022-08-28T01:58:33.833Z,1.20
2022-08-28T01:58:41.469Z,1.20
2022-08-28T01:58:51.418Z,1.30
2022-08-28T01:59:01.651Z,1.40
2022-08-28T01:59:11.655Z,1.30
2022-08-28T01:59:21.630Z,1.30
2022-08-28T01:59:31.453Z,1.40
2022-08-28T01:59:41.400Z,1.50
2022-08-28T01:59:51.700Z,1.40
2022-08-28T02:00:01.433Z,1.40
2022-08-28T02:00:11.531Z,1.50
2022-08-28T02:00:21.489Z,1.40
2022-08-28T02:00:31.641Z,1.40
2022-08-28T02:00:41.408Z,1.40
2022-08-28T02:00:51.511Z,1.50
2022-08-28T02:01:01.666Z,1.50
2022-08-28T02:01:11.678Z,1.60
2022-08-28T02:01:21.623Z,1.50
2022-08-28T02:01:31.463Z,1.50
2022-08-28T02:01:41.473Z,1.50
2022-08-28T02:01:51.461Z,1.70
2022-08-28T02:02:01.504Z,1.60
2022-08-28T02:02:11.533Z,1.50
2022-08-28T02:02:21.456Z,1.50
2022-08-28T02:02:31.506Z,1.50
2022-08-28T02:02:41.500Z,1.60
2022-08-28T02:02:51.442Z,1.50
2022-08-28T02:03:01.574Z,1.70
2022-08-28T02:03:11.408Z,1.80
2022-08-28T02:03:21.405Z,1.80
2022-08-28T02:03:31.684Z,1.70
2022-08-28T02:03:41.678Z,1.60
2022-08-28T02:03:51.751Z,1.60
2022-08-28T02:04:01.629Z,1.60
2022-08-28T02:04:11.734Z,1.50
2022-08-28T02:04:23.022Z,1.60
2022-08-28T02:04:32.410Z,1.60
2022-08-28T02:04:42.721Z,1.60
2022-08-28T02:04:51.757Z,1.40
2022-08-28T02:05:01.504Z,1.50
2022-08-28T02:05:11.671Z,1.40
2022-08-28T02:05:21.613Z,1.40
2022-08-28T02:05:31.696Z,1.30
2022-08-28T02:05:41.527Z,1.40
2022-08-28T02:05:51.672Z,1.40
2022-08-28T02:06:01.467Z,1.60
2022-08-28T02:06:11.400Z,1.50
2022-08-28T02:06:21.533Z,1.50
2022-08-28T02:06:31.697Z,1.50
2022-08-28T02:06:41.431Z,1.60
2022-08-28T02:06:51.637Z,1.70
2022-08-28T02:07:01.535Z,1.60
2022-08-28T02:07:11.668Z,1.60
2022-08-28T02:07:21.556Z,1.50
2022-08-28T02:07:31.556Z,1.40
2022-08-28T02:07:41.616Z,1.40
2022-08-28T02:07:51.646Z,1.40
2022-08-28T02:08:01.506Z,1.50
2022-08-28T02:08:11.861Z,1.50
2022-08-28T02:08:21.447Z,1.50
2022-08-28T02:08:31.707Z,1.50
2022-08-28T02:08:41.632Z,1.50
2022-08-28T02:08:51.527Z,1.60
2022-08-28T02:09:01.661Z,1.50
2022-08-28T02:09:14.525Z,1.50
2022-08-28T02:09:21.579Z,1.50
2022-08-28T02:09:31.627Z,1.60
2022-08-28T02:09:41.516Z,1.50
2022-08-28T02:09:51.403Z,1.40
2022-08-28T02:10:01.574Z,1.30
2022-08-28T02:10:11.501Z,1.40
2022-08-28T02:10:21.433Z,1.40
2022-08-28T02:10:31.454Z,1.40
2022-08-28T02:10:41.656Z,1.40
2022-08-28T02:10:51.595Z,1.40
2022-08-28T02:11:01.437Z,1.40
2022-08-28T02:11:11.718Z,1.50
2022-08-28T02:11:21.648Z,1.50
2022-08-28T02:11:31.664Z,1.50
2022-08-28T02:11:41.710Z,1.50
2022-08-28T02:11:51.505Z,1.50
2022-08-28T02:12:01.608Z,1.60
2022-08-28T02:12:11.549Z,1.60
2022-08-28T02:12:21.641Z,1.40
2022-08-28T02:12:31.615Z,1.40
2022-08-28T02:12:41.524Z,1.50
2022-08-28T02:12:51.569Z,1.60
2022-08-28T02:13:01.552Z,1.60